createdAt,value
2023-03-06T00:01:01.545Z,2.10
2023-03-06T00:03:28.830Z,2.10
2023-03-06T00:05:59.400Z,1.90
2023-03-06T00:08:27.775Z,1.90
2023-03-06T00:10:56.402Z,2.10
2023-03-06T00:13:23.924Z,2.20
2023-03-06T00:15:51.417Z,2.20
2023-03-06T00:18:19.001Z,2.10
2023-03-06T00:20:46.416Z,2.20
2023-03-06T00:23:13.887Z,2.20
2023-03-06T00:25:45.375Z,2.20
2023-03-06T00:28:15.198Z,2.20
2023-03-06T00:30:43.025Z,2.30
2023-03-06T00:33:10.954Z,2.20
2023-03-06T00:35:41.413Z,2.30
2023-03-06T00:38:10.706Z,2.30
2023-03-06T00:40:38.098Z,2.30
2023-03-06T00:43:05.439Z,2.30
2023-03-06T00:45:33.367Z,2.00
2023-03-06T00:48:00.786Z,2.10
2023-03-06T00:50:28.259Z,2.20
2023-03-06T00:52:55.988Z,2.20
2023-03-06T00:55:23.424Z,2.10
2023-03-06T00:57:50.933Z,2.10
2023-03-06T01:00:18.646Z,2.20
2023-03-06T01:02:46.094Z,2.30
2023-03-06T01:05:14.061Z,2.30
2023-03-06T01:07:41.339Z,2.30
2023-03-06T01:10:09.330Z,2.10
2023-03-06T01:12:36.847Z,1.90
2023-03-06T01:15:05.125Z,2.00
2023-03-06T01:17:32.517Z,2.00
2023-03-06T01:19:59.930Z,2.00
2023-03-06T01:22:27.288Z,2.10
2023-03-06T01:24:54.597Z,2.00
2023-03-06T01:27:21.852Z,2.00
2023-03-06T01:29:49.442Z,2.00
2023-03-06T01:32:16.649Z,1.90
2023-03-06T01:34:44.210Z,1.80
2023-03-06T01:37:11.547Z,2.00
2023-03-06T01:39:38.892Z,2.10
2023-03-06T01:42:06.498Z,2.10
2023-03-06T01:44:34.213Z,2.20
2023-03-06T01:47:02.803Z,1.90
2023-03-06T01:49:35.809Z,2.00
2023-03-06T01:52:03.147Z,1.80
2023-03-06T01:54:36.251Z,2.00
2023-03-06T01:57:15.321Z,2.00
2023-03-06T01:59:43.369Z,1.90
2023-03-06T02:02:11.875Z,1.90
2023-03-06T02:04:40.593Z,1.90
2023-03-06T02:07:08.200Z,1.70
2023-03-06T02:09:36.374Z,1.60
2023-03-06T02:12:11.421Z,1.80
2023-03-06T02:14:39.494Z,1.80
2023-03-06T02:17:07.622Z,1.80
2023-03-06T02:20:07.354Z,1.80
2023-03-06T02:23:11.786Z,1.90
2023-03-06T02:25:43.523Z,2.00
2023-03-06T02:28:13.200Z,2.10
2023-03-06T02:30:40.527Z,2.00
2023-03-06T02:33:07.961Z,1.80
2023-03-06T02:35:36.340Z,1.90
2023-03-06T02:38:08.341Z,1.90
2023-03-06T02:40:35.833Z,1.90
2023-03-06T02:43:03.035Z,2.00
2023-03-06T02:45:47.302Z,2.10
2023-03-06T02:48:15.000Z,1.90
2023-03-06T02:50:42.636Z,1.90
2023-03-06T02:53:10.334Z,1.80
2023-03-06T02:55:37.852Z,1.90
2023-03-06T02:58:05.620Z,1.90
2023-03-06T03:00:33.417Z,1.80
2023-03-06T03:03:00.985Z,1.80
2023-03-06T03:05:28.399Z,1.60
2023-03-06T03:07:55.855Z,1.50
2023-03-06T03:10:23.300Z,1.40
2023-03-06T03:12:50.985Z,1.50
2023-03-06T03:15:18.467Z,1.40
2023-03-06T03:17:45.971Z,1.40
2023-03-06T03:20:15.204Z,1.40
2023-03-06T03:22:42.712Z,1.30
2023-03-06T03:25:10.434Z,1.30
2023-03-06T03:27:37.875Z,1.40
2023-03-06T03:30:06.420Z,1.40
2023-03-06T03:32:33.915Z,1.30
2023-03-06T03:35:01.504Z,1.20
2023-03-06T03:37:28.892Z,1.30
2023-03-06T03:39:57.522Z,1.40
2023-03-06T03:42:24.957Z,1.50
2023-03-06T03:44:52.400Z,1.40
2023-03-06T03:47:19.625Z,1.40
2023-03-06T03:49:47.007Z,1.50
2023-03-06T03:52:14.479Z,1.50
2023-03-06T03:54:42.111Z,1.50
2023-03-06T03:57:09.684Z,1.40
2023-03-06T03:59:37.176Z,1.30
2023-03-06T04:02:07.659Z,1.30
2023-03-06T04:04:35.108Z,1.30
2023-03-06T04:07:02.560Z,1.20
2023-03-06T04:09:29.871Z,1.00
2023-03-06T04:11:57.658Z,1.00
2023-03-06T04:14:25.172Z,1.10
2023-03-06T04:16:52.584Z,1.10
2023-03-06T04:19:19.900Z,1.20
2023-03-06T04:21:47.515Z,1.20
2023-03-06T04:24:14.722Z,1.00
2023-03-06T04:26:42.195Z,1.00
2023-03-06T04:29:09.619Z,1.00
2023-03-06T04:31:36.952Z,1.10
2023-03-06T04:34:04.966Z,1.10
2023-03-06T04:36:33.470Z,1.10
2023-03-06T04:39:00.971Z,1.10
2023-03-06T04:41:28.321Z,1.00
2023-03-06T04:43:55.901Z,1.00
2023-03-06T04:46:23.328Z,1.00
2023-03-06T04:48:50.499Z,1.10
2023-03-06T04:51:18.021Z,1.10
2023-03-06T04:53:45.627Z,1.10
2023-03-06T04:56:13.039Z,1.10
2023-03-06T04:58:40.517Z,0.90
2023-03-06T05:01:07.895Z,0.90
2023-03-06T05:03:35.141Z,0.90
2023-03-06T05:06:02.679Z,0.90
2023-03-06T05:08:30.063Z,0.80
2023-03-06T05:10:59.123Z,0.80
2023-03-06T05:13:27.016Z,0.90
2023-03-06T05:15:54.272Z,1.00
2023-03-06T05:18:21.643Z,1.00
2023-03-06T05:20:48.882Z,1.10
2023-03-06T05:23:16.439Z,1.20
2023-03-06T05:25:43.703Z,1.10
2023-03-06T05:28:11.010Z,1.10
2023-03-06T05:30:38.375Z,1.10
2023-03-06T05:33:05.728Z,1.10
2023-03-06T05:35:33.864Z,1.10
2023-03-06T05:38:01.369Z,1.10
2023-03-06T05:40:28.894Z,1.00
2023-03-06T05:42:56.261Z,1.10
2023-03-06T05:45:25.164Z,1.10
2023-03-06T05:47:52.509Z,1.00
2023-03-06T05:50:19.948Z,0.90
2023-03-06T05:52:47.438Z,1.00
2023-03-06T05:55:15.815Z,1.00
2023-03-06T05:57:43.060Z,1.00
2023-03-06T06:00:11.182Z,1.00
2023-03-06T06:02:38.708Z,0.90
2023-03-06T06:05:06.600Z,1.00
2023-03-06T06:07:34.150Z,0.90
2023-03-06T06:10:03.610Z,1.00
2023-03-06T06:12:31.413Z,1.00
2023-03-06T06:14:59.079Z,1.10
2023-03-06T06:17:26.464Z,1.20
2023-03-06T06:19:53.936Z,1.30
2023-03-06T06:22:21.462Z,1.30
2023-03-06T06:24:48.825Z,1.40
2023-03-06T06:27:16.114Z,1.30
2023-03-06T06:29:43.487Z,1.40
2023-03-06T06:32:10.616Z,1.40
2023-03-06T06:34:37.936Z,1.20
2023-03-06T06:37:05.705Z,1.30
2023-03-06T06:39:33.040Z,1.30
2023-03-06T06:42:26.586Z,1.40
2023-03-06T06:44:49.916Z,1.40
2023-03-06T06:47:23.007Z,1.30
2023-03-06T06:49:53.154Z,1.30
2023-03-06T06:52:20.746Z,1.30
2023-03-06T06:54:48.276Z,1.30
2023-03-06T06:57:15.622Z,1.40
2023-03-06T06:59:43.162Z,1.40
2023-03-06T07:02:14.465Z,1.50
2023-03-06T07:04:56.236Z,1.60
2023-03-06T07:07:29.230Z,1.60
2023-03-06T07:09:56.803Z,1.60
2023-03-06T07:12:24.210Z,1.70
2023-03-06T07:14:51.518Z,1.70
2023-03-06T07:17:18.906Z,1.80
2023-03-06T07:19:46.308Z,1.90
2023-03-06T07:22:14.125Z,2.00
2023-03-06T07:24:41.405Z,2.00
2023-03-06T07:27:08.543Z,2.00
2023-03-06T07:29:36.057Z,2.00
2023-03-06T07:32:04.345Z,2.00
2023-03-06T07:34:31.943Z,2.10
2023-03-06T07:36:59.304Z,2.00
2023-03-06T07:39:28.463Z,2.20
2023-03-06T07:41:56.081Z,2.30
2023-03-06T07:44:23.403Z,2.20
2023-03-06T07:46:50.637Z,2.30
2023-03-06T07:49:18.244Z,2.40
2023-03-06T07:51:45.875Z,2.40
2023-03-06T07:54:13.260Z,2.50
2023-03-06T07:56:40.600Z,2.50
2023-03-06T07:59:08.070Z,2.70
2023-03-06T08:01:36.559Z,2.60
2023-03-06T08:04:04.119Z,2.70
2023-03-06T08:06:31.594Z,2.80
2023-03-06T08:08:58.903Z,2.80
2023-03-06T08:11:28.041Z,2.90
2023-03-06T08:13:56.118Z,2.90
2023-03-06T08:16:25.340Z,2.90
2023-03-06T08:18:52.755Z,2.90
2023-03-06T08:21:22.316Z,2.80
2023-03-06T08:23:49.869Z,2.90
2023-03-06T08:26:22.217Z,3.00
2023-03-06T08:28:50.730Z,3.00
2023-03-06T08:31:35.774Z,3.00
2023-03-06T08:34:05.120Z,3.20
2023-03-06T08:36:32.604Z,3.30
2023-03-06T08:39:00.057Z,3.10
2023-03-06T08:41:27.630Z,3.30
2023-03-06T08:43:54.923Z,3.30
2023-03-06T08:46:23.791Z,3.30
2023-03-06T08:48:51.104Z,3.30
2023-03-06T08:51:18.750Z,3.30
2023-03-06T08:53:46.246Z,3.20
2023-03-06T08:56:27.683Z,3.40
2023-03-06T08:58:55.415Z,3.20
2023-03-06T09:01:24.966Z,3.10
2023-03-06T09:03:56.617Z,3.30
2023-03-06T09:06:24.102Z,3.30
2023-03-06T09:08:52.768Z,3.20
2023-03-06T09:11:20.282Z,3.30
2023-03-06T09:13:47.502Z,3.40
2023-03-06T09:16:14.907Z,3.40
2023-03-06T09:18:42.130Z,3.50
2023-03-06T09:21:09.773Z,3.60
2023-03-06T09:23:37.570Z,3.60
2023-03-06T09:26:05.142Z,3.70
2023-03-06T09:28:32.776Z,3.60
2023-03-06T09:31:00.178Z,3.40
2023-03-06T09:33:28.901Z,3.50
2023-03-06T09:35:57.410Z,3.50
2023-03-06T09:38:26.711Z,3.70
2023-03-06T09:41:03.208Z,3.50
2023-03-06T09:43:43.872Z,3.50
2023-03-06T09:46:23.925Z,3.40
2023-03-06T09:49:00.076Z,3.40
2023-03-06T09:51:56.979Z,3.40
2023-03-06T09:54:41.670Z,3.40
2023-03-06T09:57:33.414Z,3.40
2023-03-06T10:00:04.886Z,3.50
2023-03-06T10:02:46.885Z,3.50
2023-03-06T10:05:49.093Z,3.50
2023-03-06T10:08:27.702Z,3.60
2023-03-06T10:11:02.731Z,3.50
2023-03-06T10:13:47.260Z,3.60
2023-03-06T10:16:30.248Z,3.60
2023-03-06T10:19:04.453Z,3.60
2023-03-06T10:21:52.059Z,3.70
2023-03-06T10:24:22.540Z,3.80
2023-03-06T10:26:59.833Z,3.90
2023-03-06T10:30:02.137Z,3.90
2023-03-06T10:33:01.024Z,3.90
2023-03-06T10:35:48.727Z,3.80
2023-03-06T10:38:27.365Z,3.60
2023-03-06T10:41:09.331Z,3.90
2023-03-06T10:43:37.295Z,4.00
2023-03-06T10:46:05.569Z,3.90
2023-03-06T10:48:36.285Z,4.20
2023-03-06T10:51:20.991Z,4.30
2023-03-06T10:53:56.331Z,4.20
2023-03-06T10:56:40.708Z,4.10
2023-03-06T10:59:14.109Z,4.20
2023-03-06T11:01:42.880Z,4.20
2023-03-06T11:04:33.004Z,4.10
2023-03-06T11:07:22.902Z,4.30
2023-03-06T11:09:59.395Z,4.30
2023-03-06T11:12:34.376Z,4.40
2023-03-06T11:15:10.550Z,4.50
2023-03-06T11:17:48.325Z,4.40
2023-03-06T11:20:26.298Z,4.30
2023-03-06T11:23:12.607Z,4.30
2023-03-06T11:25:43.050Z,4.40
2023-03-06T11:28:23.999Z,4.30
2023-03-06T11:31:11.775Z,4.40
2023-03-06T11:34:10.036Z,4.20
2023-03-06T11:36:55.836Z,4.20
2023-03-06T11:39:28.632Z,4.50
2023-03-06T11:42:04.261Z,4.60
2023-03-06T11:44:55.946Z,4.50
2023-03-06T11:47:29.256Z,4.50
2023-03-06T11:50:22.124Z,4.30
2023-03-06T11:52:59.674Z,4.60
2023-03-06T11:55:45.282Z,4.40
2023-03-06T11:58:37.419Z,4.60
2023-03-06T12:01:20.745Z,4.70
2023-03-06T12:03:54.295Z,5.00
2023-03-06T12:06:33.074Z,5.40
2023-03-06T12:09:39.159Z,5.80
2023-03-06T12:12:45.142Z,5.40
2023-03-06T12:15:18.666Z,5.40
2023-03-06T12:18:13.172Z,5.40
2023-03-06T12:20:50.778Z,5.40
2023-03-06T12:23:53.109Z,5.30
2023-03-06T12:26:34.589Z,5.10
2023-03-06T12:29:10.953Z,5.40
2023-03-06T12:31:50.633Z,5.50
2023-03-06T12:34:24.472Z,5.50
2023-03-06T12:37:00.743Z,5.70
2023-03-06T12:39:52.698Z,5.70
2023-03-06T12:42:31.304Z,5.60
2023-03-06T12:45:32.557Z,5.50
2023-03-06T12:48:00.507Z,5.50
2023-03-06T12:50:32.746Z,5.60
2023-03-06T12:53:07.650Z,5.70
2023-03-06T12:55:48.400Z,5.60
2023-03-06T12:58:31.124Z,5.90
2023-03-06T13:01:20.385Z,6.10
2023-03-06T13:04:05.981Z,6.10
2023-03-06T13:06:50.736Z,6.10
2023-03-06T13:09:25.836Z,6.00
2023-03-06T13:12:19.672Z,5.90
2023-03-06T13:14:54.104Z,6.00
2023-03-06T13:17:24.938Z,5.80
2023-03-06T13:20:41.359Z,5.70
2023-03-06T13:23:33.551Z,5.70
2023-03-06T13:26:05.139Z,5.70
2023-03-06T13:28:48.059Z,5.70
2023-03-06T13:31:34.379Z,5.40
2023-03-06T13:34:43.869Z,5.40
2023-03-06T13:37:20.561Z,5.50
2023-03-06T13:39:59.737Z,5.60
2023-03-06T13:42:29.236Z,5.40
2023-03-06T13:45:25.282Z,5.40
2023-03-06T13:48:33.714Z,5.20
2023-03-06T13:50:44.834Z,5.30
2023-03-06T13:53:42.824Z,5.20
2023-03-06T13:56:42.220Z,5.20
2023-03-06T13:59:24.072Z,5.20
2023-03-06T14:02:24.986Z,5.10
2023-03-06T14:04:53.756Z,5.30
2023-03-06T14:07:30.661Z,5.10
2023-03-06T14:10:10.450Z,5.30
2023-03-06T14:12:41.262Z,5.20
2023-03-06T14:15:20.914Z,5.30
2023-03-06T14:17:54.170Z,5.20
2023-03-06T14:20:21.835Z,5.10
2023-03-06T14:22:49.061Z,5.00
2023-03-06T14:25:27.355Z,5.10
2023-03-06T14:27:56.456Z,5.00
2023-03-06T14:30:27.745Z,5.30
2023-03-06T14:32:55.616Z,5.20
2023-03-06T14:35:30.678Z,5.20
2023-03-06T14:38:06.800Z,5.30
2023-03-06T14:40:47.055Z,5.40
2023-03-06T14:43:22.817Z,5.50
2023-03-06T14:45:58.041Z,5.40
2023-03-06T14:48:27.288Z,5.30
2023-03-06T14:50:57.777Z,5.20
2023-03-06T14:53:29.693Z,5.20
2023-03-06T14:56:00.192Z,5.10
2023-03-06T14:58:32.246Z,5.10
2023-03-06T15:01:02.856Z,5.20
2023-03-06T15:03:35.513Z,5.20
2023-03-06T15:06:03.944Z,5.10
2023-03-06T15:08:32.615Z,4.90
2023-03-06T15:11:02.250Z,5.00
2023-03-06T15:13:30.982Z,4.90
2023-03-06T15:16:30.118Z,5.80
2023-03-06T15:19:04.680Z,4.90
2023-03-06T15:21:38.077Z,4.80
2023-03-06T15:24:35.281Z,4.80
2023-03-06T15:27:06.791Z,4.70
2023-03-06T15:29:34.258Z,4.80
2023-03-06T15:32:31.863Z,4.80
2023-03-06T15:35:30.716Z,4.70
2023-03-06T15:37:58.293Z,4.70
2023-03-06T15:40:26.896Z,4.60
2023-03-06T15:42:54.228Z,4.70
2023-03-06T15:45:23.315Z,4.70
2023-03-06T15:47:51.786Z,4.60
2023-03-06T15:50:26.788Z,4.80
2023-03-06T15:52:54.136Z,4.50
2023-03-06T15:55:23.145Z,4.50
2023-03-06T15:57:54.484Z,4.30
2023-03-06T16:00:27.990Z,4.00
2023-03-06T16:02:56.542Z,4.10
2023-03-06T16:05:23.985Z,4.00
2023-03-06T16:07:51.343Z,4.10
2023-03-06T16:10:23.145Z,4.30
2023-03-06T16:12:53.033Z,4.30
2023-03-06T16:15:22.676Z,4.50
2023-03-06T16:17:50.141Z,4.40
2023-03-06T16:20:19.097Z,4.50
2023-03-06T16:22:47.487Z,4.50
2023-03-06T16:25:16.095Z,4.40
2023-03-06T16:27:46.456Z,4.50
2023-03-06T16:30:20.058Z,4.40
2023-03-06T16:32:47.428Z,4.20
2023-03-06T16:35:15.070Z,4.20
2023-03-06T16:37:42.938Z,4.10
2023-03-06T16:40:20.423Z,4.10
2023-03-06T16:42:48.104Z,4.10
2023-03-06T16:45:15.652Z,4.10
2023-03-06T16:47:43.700Z,4.10
2023-03-06T16:50:37.198Z,3.90
2023-03-06T16:53:04.592Z,3.90
2023-03-06T16:55:31.849Z,3.80
2023-03-06T16:57:59.423Z,3.80
2023-03-06T17:00:31.139Z,3.80
2023-03-06T17:02:58.564Z,3.60
2023-03-06T17:05:25.824Z,3.60
2023-03-06T17:07:53.213Z,3.50
2023-03-06T17:10:23.063Z,3.60
2023-03-06T17:12:50.505Z,3.50
2023-03-06T17:15:17.996Z,3.50
2023-03-06T17:17:45.548Z,3.50
2023-03-06T17:20:13.835Z,3.50
2023-03-06T17:22:41.893Z,3.50
2023-03-06T17:25:09.831Z,3.50
2023-03-06T17:27:37.449Z,3.40
2023-03-06T17:30:06.157Z,3.30
2023-03-06T17:32:33.646Z,3.40
2023-03-06T17:35:01.020Z,3.30
2023-03-06T17:37:28.242Z,3.30
2023-03-06T17:39:55.663Z,3.30
2023-03-06T17:42:22.932Z,3.40
2023-03-06T17:44:51.139Z,3.30
2023-03-06T17:47:19.809Z,3.30
2023-03-06T17:49:47.228Z,3.30
2023-03-06T17:52:14.738Z,3.20
2023-03-06T17:54:42.241Z,3.20
2023-03-06T17:57:09.476Z,3.20
2023-03-06T17:59:36.962Z,3.10
2023-03-06T18:02:06.576Z,3.10
2023-03-06T18:04:34.389Z,2.90
2023-03-06T18:07:01.813Z,3.00
2023-03-06T18:09:29.518Z,2.70
2023-03-06T18:11:57.136Z,2.70
2023-03-06T18:14:24.793Z,2.50
2023-03-06T18:16:52.368Z,2.50
2023-03-06T18:19:19.624Z,2.40
2023-03-06T18:21:47.638Z,2.30
2023-03-06T18:24:15.092Z,2.20
2023-03-06T18:26:46.099Z,2.10
2023-03-06T18:29:13.441Z,2.10
2023-03-06T18:31:42.286Z,2.10
2023-03-06T18:34:11.995Z,2.10
2023-03-06T18:36:39.282Z,2.30
2023-03-06T18:39:08.744Z,2.20
2023-03-06T18:41:36.456Z,2.20
2023-03-06T18:44:03.976Z,2.30
2023-03-06T18:46:32.763Z,2.20
2023-03-06T18:49:00.211Z,2.30
2023-03-06T18:51:27.684Z,2.30
2023-03-06T18:54:00.369Z,2.20
2023-03-06T18:56:27.811Z,2.10
2023-03-06T18:58:55.159Z,2.10
2023-03-06T19:01:23.009Z,2.10
2023-03-06T19:03:50.811Z,2.20
2023-03-06T19:06:18.467Z,2.30
2023-03-06T19:08:45.925Z,2.10
2023-03-06T19:11:14.663Z,2.10
2023-03-06T19:13:42.121Z,2.10
2023-03-06T19:16:09.883Z,2.20
2023-03-06T19:18:38.874Z,2.10
2023-03-06T19:21:14.641Z,2.20
2023-03-06T19:23:42.307Z,2.30
2023-03-06T19:26:09.803Z,2.30
2023-03-06T19:28:38.066Z,2.30
2023-03-06T19:31:25.819Z,2.40
2023-03-06T19:33:54.589Z,2.50
2023-03-06T19:36:27.044Z,2.40
2023-03-06T19:38:55.620Z,2.60
2023-03-06T19:41:23.034Z,2.60
2023-03-06T19:43:54.820Z,2.70
2023-03-06T19:46:22.642Z,2.80
2023-03-06T19:48:59.306Z,2.90
2023-03-06T19:51:27.071Z,2.90
2023-03-06T19:53:54.557Z,3.00
2023-03-06T19:56:26.419Z,2.90
2023-03-06T19:58:54.091Z,3.00
2023-03-06T20:01:22.576Z,3.00
2023-03-06T20:03:50.994Z,2.90
2023-03-06T20:06:19.707Z,2.80
2023-03-06T20:08:47.109Z,2.80
2023-03-06T20:11:25.569Z,2.90
2023-03-06T20:14:03.564Z,2.80
2023-03-06T20:16:31.038Z,2.80
2023-03-06T20:18:59.129Z,2.80
2023-03-06T20:21:30.037Z,2.80
2023-03-06T20:23:58.612Z,2.70
2023-03-06T20:26:26.616Z,2.80
2023-03-06T20:28:55.020Z,2.80
2023-03-06T20:31:25.252Z,2.80
2023-03-06T20:33:53.230Z,2.80
2023-03-06T20:36:22.286Z,2.80
2023-03-06T20:38:49.685Z,2.80
2023-03-06T20:41:21.855Z,2.80
2023-03-06T20:43:49.270Z,2.80
2023-03-06T20:46:16.938Z,2.80
2023-03-06T20:48:45.107Z,3.00
2023-03-06T20:51:23.214Z,3.00
2023-03-06T20:53:51.881Z,2.80
2023-03-06T20:56:20.407Z,2.70
2023-03-06T20:58:49.254Z,2.80
2023-03-06T21:01:27.081Z,2.80
2023-03-06T21:03:54.645Z,3.00
2023-03-06T21:06:21.960Z,3.00
2023-03-06T21:08:49.533Z,3.00
2023-03-06T21:11:17.430Z,2.90
2023-03-06T21:13:44.823Z,3.00
2023-03-06T21:16:14.088Z,3.00
2023-03-06T21:18:41.866Z,2.90
2023-03-06T21:21:13.686Z,2.70
2023-03-06T21:23:41.224Z,2.80
2023-03-06T21:26:11.744Z,2.70
2023-03-06T21:28:40.084Z,2.70
2023-03-06T21:31:08.451Z,2.70
2023-03-06T21:33:35.875Z,2.80
2023-03-06T21:36:03.639Z,2.70
2023-03-06T21:38:31.034Z,2.70
2023-03-06T21:41:16.376Z,2.70
2023-03-06T21:43:43.752Z,2.70
2023-03-06T21:46:11.556Z,2.60
2023-03-06T21:48:39.019Z,2.70
2023-03-06T21:51:07.197Z,2.70
2023-03-06T21:53:34.915Z,2.70
2023-03-06T21:56:02.844Z,2.60
2023-03-06T21:58:30.470Z,2.60
2023-03-06T22:00:57.891Z,2.70
2023-03-06T22:03:25.141Z,2.70
2023-03-06T22:05:52.883Z,2.50
2023-03-06T22:08:25.485Z,2.30
2023-03-06T22:10:52.958Z,2.40
2023-03-06T22:13:21.018Z,2.10
2023-03-06T22:15:52.465Z,2.10
2023-03-06T22:18:19.832Z,2.20
2023-03-06T22:20:47.684Z,2.20
2023-03-06T22:23:15.312Z,2.20
2023-03-06T22:25:42.714Z,2.20
2023-03-06T22:28:09.885Z,2.20
2023-03-06T22:30:37.541Z,2.20
2023-03-06T22:33:05.058Z,2.30
2023-03-06T22:35:32.332Z,2.30
2023-03-06T22:38:02.861Z,2.20
2023-03-06T22:40:30.286Z,2.10
2023-03-06T22:42:57.570Z,2.20
2023-03-06T22:45:24.791Z,2.10
2023-03-06T22:47:57.140Z,2.00
2023-03-06T22:50:29.858Z,2.00
2023-03-06T22:52:57.265Z,2.10
2023-03-06T22:55:24.619Z,2.10
2023-03-06T22:57:51.919Z,2.00
2023-03-06T23:00:19.688Z,2.00
2023-03-06T23:02:47.452Z,1.90
2023-03-06T23:05:16.186Z,1.80
2023-03-06T23:07:43.589Z,1.80
2023-03-06T23:10:11.736Z,1.90
2023-03-06T23:12:41.999Z,2.00
2023-03-06T23:15:09.510Z,1.90
2023-03-06T23:17:36.755Z,1.90
2023-03-06T23:20:10.373Z,1.90
2023-03-06T23:22:37.674Z,1.80
2023-03-06T23:25:06.314Z,1.80
2023-03-06T23:27:35.391Z,1.70
2023-03-06T23:30:04.221Z,1.80
2023-03-06T23:32:34.844Z,1.90
2023-03-06T23:35:02.109Z,1.80
2023-03-06T23:37:29.613Z,1.80
2023-03-06T23:39:57.110Z,1.70
2023-03-06T23:42:24.604Z,1.60
2023-03-06T23:44:52.020Z,1.70
2023-03-06T23:47:20.381Z,1.70
2023-03-06T23:49:47.706Z,1.70
2023-03-06T23:52:15.098Z,1.70
2023-03-06T23:54:42.378Z,1.70
2023-03-06T23:57:09.952Z,1.80
2023-03-06T23:59:37.423Z,1.80
